createdAt,value
2022-08-02T00:00:09.551Z,8.35
2022-08-02T00:02:36.290Z,13.07
2022-08-02T00:05:02.902Z,10.63
2022-08-02T00:07:29.406Z,11.32
2022-08-02T00:09:55.916Z,11.18
2022-08-02T00:12:22.617Z,10.25
2022-08-02T00:14:49.145Z,12.18
2022-08-02T00:17:15.663Z,12.18
2022-08-02T00:19:42.174Z,10.00
2022-08-02T00:22:09.142Z,12.27
2022-08-02T00:24:35.931Z,13.35
2022-08-02T00:27:09.517Z,13.93
2022-08-02T00:29:50.406Z,12.45
2022-08-02T00:32:20.298Z,17.48
2022-08-02T00:34:46.811Z,8.32
2022-08-02T00:37:13.482Z,9.82
2022-08-02T00:39:40.002Z,10.68
2022-08-02T00:42:06.655Z,8.35
2022-08-02T00:44:33.160Z,13.88
2022-08-02T00:47:00.057Z,15.13
2022-08-02T00:49:26.753Z,12.77
2022-08-02T00:51:53.328Z,9.30
2022-08-02T00:54:20.620Z,12.48
2022-08-02T00:56:49.822Z,12.40
2022-08-02T00:59:17.565Z,12.48
2022-08-02T01:01:56.279Z,13.57
2022-08-02T01:04:30.635Z,8.13
2022-08-02T01:06:58.408Z,10.32
2022-08-02T01:09:25.438Z,13.35
2022-08-02T01:11:51.963Z,9.32
2022-08-02T01:14:18.578Z,6.03
2022-08-02T01:16:58.326Z,10.43
2022-08-02T01:19:33.080Z,10.55
2022-08-02T01:22:20.995Z,8.65
2022-08-02T01:24:53.851Z,15.77
2022-08-02T01:28:01.703Z,11.35
2022-08-02T01:30:28.309Z,13.30
2022-08-02T01:32:57.737Z,13.82
2022-08-02T01:35:50.543Z,12.35
2022-08-02T01:38:22.261Z,13.98
2022-08-02T01:40:48.762Z,11.82
2022-08-02T01:43:15.269Z,14.50
2022-08-02T01:45:41.806Z,10.00
2022-08-02T01:48:08.312Z,14.88
2022-08-02T01:50:35.442Z,15.50
2022-08-02T01:53:05.684Z,14.25
2022-08-02T01:58:19.974Z,12.15
2022-08-02T02:00:47.113Z,12.55
2022-08-02T02:03:14.786Z,10.10
2022-08-02T02:05:41.312Z,15.25
2022-08-02T02:08:08.277Z,12.90
2022-08-02T02:10:38.573Z,13.18
2022-08-02T02:13:07.885Z,14.23
2022-08-02T02:15:34.648Z,14.73
2022-08-02T02:18:12.987Z,12.65
2022-08-02T02:20:40.832Z,15.15
2022-08-02T02:23:07.315Z,11.88
2022-08-02T02:25:36.490Z,10.82
2022-08-02T02:28:12.328Z,12.68
2022-08-02T02:30:40.232Z,11.63
2022-08-02T02:33:07.109Z,15.95
2022-08-02T02:35:36.809Z,13.40
2022-08-02T02:38:06.481Z,15.25
2022-08-02T02:40:33.185Z,12.68
2022-08-02T02:43:00.083Z,12.25
2022-08-02T02:45:26.865Z,13.40
2022-08-02T02:47:53.774Z,14.90
2022-08-02T02:50:21.643Z,13.35
2022-08-02T02:52:48.413Z,14.10
2022-08-02T02:55:14.937Z,14.43
2022-08-02T02:57:41.472Z,12.90
2022-08-02T03:00:12.402Z,14.95
2022-08-02T03:02:39.380Z,16.00
2022-08-02T03:05:09.443Z,14.52
2022-08-02T03:07:36.012Z,12.57
2022-08-02T03:10:06.551Z,13.25
2022-08-02T03:12:33.860Z,15.07
2022-08-02T03:15:01.512Z,16.25
2022-08-02T03:17:38.689Z,18.73
2022-08-02T03:20:11.371Z,12.88
2022-08-02T03:22:37.873Z,15.43
2022-08-02T03:25:04.637Z,10.07
2022-08-02T03:27:31.136Z,13.80
2022-08-02T03:29:57.624Z,18.52
2022-08-02T03:32:24.129Z,12.25
2022-08-02T03:34:50.638Z,13.45
2022-08-02T03:37:17.132Z,11.00
2022-08-02T03:39:53.165Z,16.95
2022-08-02T03:42:20.875Z,16.30
2022-08-02T03:44:48.201Z,10.25
2022-08-02T03:47:14.759Z,15.13
2022-08-02T03:49:41.578Z,20.15
2022-08-02T03:52:08.334Z,21.30
2022-08-02T03:54:45.272Z,24.77
2022-08-02T03:57:12.550Z,21.90
2022-08-02T03:59:45.561Z,20.58
2022-08-02T04:02:12.789Z,26.13
2022-08-02T04:04:39.787Z,18.88
2022-08-02T04:07:07.583Z,19.15
2022-08-02T04:09:34.283Z,26.40
2022-08-02T04:12:00.782Z,17.52
2022-08-02T04:14:27.302Z,18.05
2022-08-02T04:17:02.044Z,20.33
2022-08-02T04:19:32.764Z,16.08
2022-08-02T04:22:00.245Z,18.85
2022-08-02T04:24:32.280Z,14.30
2022-08-02T04:27:06.670Z,13.68
2022-08-02T04:29:47.077Z,17.13
2022-08-02T04:32:14.360Z,14.65
2022-08-02T04:34:44.860Z,16.20
2022-08-02T04:37:16.983Z,17.05
2022-08-02T04:39:43.705Z,16.88
2022-08-02T04:42:10.424Z,13.73
2022-08-02T04:44:37.108Z,10.18
2022-08-02T04:47:06.849Z,12.70
2022-08-02T04:49:33.626Z,17.80
2022-08-02T04:52:01.027Z,14.82
2022-08-02T04:54:27.628Z,13.25
2022-08-02T04:56:54.140Z,12.55
2022-08-02T04:59:20.830Z,11.00
2022-08-02T05:01:47.366Z,14.63
2022-08-02T05:04:13.910Z,12.80
2022-08-02T05:06:40.444Z,13.02
2022-08-02T05:09:06.951Z,17.13
2022-08-02T05:11:34.711Z,16.80
2022-08-02T05:14:04.262Z,14.27
2022-08-02T05:16:31.881Z,11.75
2022-08-02T05:19:02.012Z,13.75
2022-08-02T05:21:29.107Z,13.50
2022-08-02T05:23:55.661Z,13.15
2022-08-02T05:26:22.212Z,12.82
2022-08-02T05:28:48.808Z,13.02
2022-08-02T05:31:15.345Z,15.32
2022-08-02T05:33:41.855Z,12.38
2022-08-02T05:36:09.504Z,14.13
2022-08-02T05:38:37.424Z,14.10
2022-08-02T05:41:07.159Z,15.05
2022-08-02T05:43:33.667Z,12.40
2022-08-02T05:46:00.216Z,13.70
2022-08-02T05:48:31.489Z,13.00
2022-08-02T05:51:12.289Z,13.73
2022-08-02T05:56:35.794Z,13.57
2022-08-02T05:59:08.952Z,12.25
2022-08-02T06:01:38.109Z,10.77
2022-08-02T06:04:11.618Z,14.70
2022-08-02T06:06:38.242Z,13.25
2022-08-02T06:09:09.286Z,11.00
2022-08-02T06:11:37.451Z,11.40
2022-08-02T06:14:07.446Z,10.13
2022-08-02T06:16:42.193Z,10.07
2022-08-02T06:19:09.609Z,10.75
2022-08-02T06:22:32.484Z,10.77
2022-08-02T06:24:22.764Z,9.65
2022-08-02T06:26:52.685Z,9.80
2022-08-02T06:31:46.050Z,7.70
2022-08-02T06:34:12.550Z,10.43
2022-08-02T06:36:58.885Z,8.32
2022-08-02T06:39:30.883Z,8.93
2022-08-02T06:41:59.804Z,10.30
2022-08-02T06:47:13.794Z,10.50
2022-08-02T06:49:52.326Z,7.63
2022-08-02T06:52:28.936Z,8.68
2022-08-02T06:54:57.225Z,11.85
2022-08-02T06:57:23.771Z,8.27
2022-08-02T06:59:50.285Z,7.90
2022-08-02T07:02:16.802Z,10.60
2022-08-02T07:04:43.311Z,11.18
2022-08-02T07:07:09.839Z,10.48
2022-08-02T07:09:36.336Z,11.30
2022-08-02T07:12:02.908Z,9.85
2022-08-02T07:14:29.416Z,10.77
2022-08-02T07:16:55.947Z,9.23
2022-08-02T07:19:28.594Z,10.20
2022-08-02T07:22:04.262Z,8.63
2022-08-02T07:24:30.849Z,11.00
2022-08-02T07:27:13.725Z,11.82
2022-08-02T07:29:46.601Z,8.80
2022-08-02T07:32:24.611Z,9.68
2022-08-02T07:34:53.442Z,9.82
2022-08-02T07:37:54.267Z,8.63
2022-08-02T07:40:14.017Z,10.52
2022-08-02T07:42:42.833Z,9.32
2022-08-02T07:45:09.784Z,10.50
2022-08-02T07:47:38.104Z,8.88
2022-08-02T07:50:05.369Z,7.70
2022-08-02T07:52:31.896Z,10.05
2022-08-02T07:54:58.447Z,8.23
2022-08-02T07:57:25.181Z,7.45
2022-08-02T07:59:51.872Z,10.48
2022-08-02T08:02:18.357Z,9.25
2022-08-02T08:04:44.868Z,7.22
2022-08-02T08:07:11.880Z,9.27
2022-08-02T08:09:41.717Z,7.75
2022-08-02T08:12:09.362Z,8.68
2022-08-02T08:14:36.302Z,8.32
2022-08-02T08:17:03.482Z,9.00
2022-08-02T08:19:50.278Z,8.57
2022-08-02T08:22:16.466Z,7.53
2022-08-02T08:24:42.985Z,8.18
2022-08-02T08:27:14.434Z,7.78
2022-08-02T08:29:42.436Z,7.95
2022-08-02T08:32:14.181Z,8.63
2022-08-02T08:34:43.099Z,8.02
2022-08-02T08:37:09.631Z,8.68
2022-08-02T08:39:57.177Z,7.35
2022-08-02T08:42:29.149Z,7.95
2022-08-02T08:44:56.585Z,9.40
2022-08-02T08:47:23.922Z,12.85
2022-08-02T08:49:53.363Z,10.38
2022-08-02T08:52:20.244Z,10.10
2022-08-02T08:54:48.442Z,9.27
2022-08-02T08:57:15.218Z,8.80
2022-08-02T08:59:42.669Z,8.50
2022-08-02T09:02:17.834Z,7.40
2022-08-02T09:04:54.722Z,7.15
2022-08-02T09:07:21.779Z,7.32
2022-08-02T09:09:48.294Z,11.27
2022-08-02T09:12:19.538Z,10.45
2022-08-02T09:14:46.605Z,6.55
2022-08-02T09:17:17.128Z,8.38
2022-08-02T09:19:45.651Z,8.38
2022-08-02T09:22:13.399Z,9.10
2022-08-02T09:24:48.023Z,6.18
2022-08-02T09:27:18.970Z,6.32
2022-08-02T09:30:11.442Z,6.72
2022-08-02T09:32:40.459Z,7.18
2022-08-02T09:35:07.594Z,5.13
2022-08-02T09:37:34.121Z,6.25
2022-08-02T09:40:02.727Z,6.85
2022-08-02T09:42:30.810Z,6.43
2022-08-02T09:44:59.237Z,7.05
2022-08-02T09:47:26.259Z,5.13
2022-08-02T09:49:56.415Z,4.15
2022-08-02T09:52:37.176Z,6.20
2022-08-02T09:55:11.309Z,3.78
2022-08-02T09:57:40.775Z,5.35
2022-08-02T10:00:14.851Z,4.13
2022-08-02T10:03:11.114Z,3.55
2022-08-02T10:05:56.316Z,5.25
2022-08-02T10:11:02.163Z,3.92
2022-08-02T10:13:33.588Z,4.57
2022-08-02T10:16:00.182Z,4.03
2022-08-02T10:18:38.950Z,3.53
2022-08-02T10:21:07.711Z,6.32
2022-08-02T10:23:34.415Z,3.65
2022-08-02T10:26:01.042Z,3.10
2022-08-02T10:28:33.357Z,5.43
2022-08-02T10:31:01.178Z,2.92
2022-08-02T10:33:31.278Z,3.13
2022-08-02T10:36:04.227Z,4.47
2022-08-02T10:38:34.079Z,3.95
2022-08-02T10:41:00.891Z,2.75
2022-08-02T10:43:36.562Z,2.53
2022-08-02T10:46:24.123Z,3.78
2022-08-02T10:49:37.995Z,2.53
2022-08-02T10:52:02.916Z,2.17
2022-08-02T10:54:39.380Z,4.03
2022-08-02T10:57:23.131Z,1.92
2022-08-02T10:59:51.346Z,3.38
2022-08-02T11:02:38.005Z,3.38
2022-08-02T11:05:12.478Z,7.60
2022-08-02T11:07:41.423Z,4.47
2022-08-02T11:10:25.978Z,2.25
2022-08-02T11:13:11.380Z,2.28
2022-08-02T11:16:01.963Z,2.20
2022-08-02T11:18:46.646Z,4.03
2022-08-02T11:21:26.420Z,3.22
2022-08-02T11:23:52.982Z,3.53
2022-08-02T11:26:31.597Z,3.40
2022-08-02T11:28:59.035Z,4.78
2022-08-02T11:31:25.544Z,2.00
2022-08-02T11:33:52.208Z,2.30
2022-08-02T11:36:18.698Z,3.35
2022-08-02T11:38:45.397Z,2.28
2022-08-02T11:41:46.622Z,2.60
2022-08-02T11:44:08.257Z,4.05
2022-08-02T11:46:34.873Z,3.55
2022-08-02T11:49:15.507Z,2.42
2022-08-02T11:52:02.083Z,3.33
2022-08-02T11:54:30.372Z,3.63
2022-08-02T11:57:19.898Z,4.82
2022-08-02T11:59:49.362Z,3.67
2022-08-02T12:02:16.014Z,3.45
2022-08-02T12:04:42.629Z,3.28
2022-08-02T12:07:10.683Z,4.95
2022-08-02T12:09:41.028Z,2.83
2022-08-02T12:12:07.916Z,4.93
2022-08-02T12:14:34.813Z,3.47
2022-08-02T12:17:19.883Z,3.55
2022-08-02T12:19:47.886Z,2.70
2022-08-02T12:22:18.424Z,4.72
2022-08-02T12:24:49.445Z,3.40
2022-08-02T12:27:36.315Z,2.72
2022-08-02T12:30:09.087Z,4.38
2022-08-02T12:32:36.099Z,2.25
2022-08-02T12:35:07.038Z,2.67
2022-08-02T12:37:33.570Z,2.17
2022-08-02T12:40:24.847Z,3.00
2022-08-02T12:42:54.751Z,2.22
2022-08-02T12:45:21.276Z,3.55
2022-08-02T12:47:49.516Z,3.65
2022-08-02T12:50:32.542Z,4.15
2022-08-02T12:53:12.240Z,1.80
2022-08-02T12:56:01.579Z,3.75
2022-08-02T12:58:30.948Z,3.35
2022-08-02T13:00:59.039Z,3.17
2022-08-02T13:04:09.606Z,2.35
2022-08-02T13:06:39.546Z,2.13
2022-08-02T13:08:58.664Z,5.28
2022-08-02T13:11:25.254Z,4.45
2022-08-02T13:13:51.816Z,2.45
2022-08-02T13:16:18.318Z,4.07
2022-08-02T13:18:57.481Z,4.77
2022-08-02T13:21:40.926Z,2.63
2022-08-02T13:24:33.201Z,2.45
2022-08-02T13:26:57.762Z,2.70
2022-08-02T13:29:25.750Z,2.15
2022-08-02T13:31:52.321Z,3.85
2022-08-02T13:34:18.863Z,2.85
2022-08-02T13:36:45.375Z,3.22
2022-08-02T13:39:12.691Z,5.50
2022-08-02T13:41:39.218Z,1.55
2022-08-02T13:44:10.226Z,2.58
2022-08-02T13:46:39.751Z,2.83
2022-08-02T13:49:17.811Z,7.10
2022-08-02T13:51:45.479Z,3.47
2022-08-02T13:54:11.993Z,2.70
2022-08-02T13:56:38.488Z,3.30
2022-08-02T13:59:54.109Z,2.50
2022-08-02T14:01:52.112Z,2.90
2022-08-02T14:04:18.708Z,1.40
2022-08-02T14:06:45.200Z,2.70
2022-08-02T14:09:15.781Z,2.58
2022-08-02T14:11:43.933Z,2.33
2022-08-02T14:14:16.531Z,3.13
2022-08-02T14:16:45.089Z,2.50
2022-08-02T14:19:16.813Z,2.15
2022-08-02T14:21:45.930Z,3.67
2022-08-02T14:24:14.957Z,2.38
2022-08-02T14:26:41.461Z,2.78
2022-08-02T14:29:07.967Z,2.67
2022-08-02T14:31:34.474Z,2.85
2022-08-02T14:34:01.022Z,2.22
2022-08-02T14:36:28.175Z,2.80
2022-08-02T14:38:55.399Z,2.83
2022-08-02T14:41:22.019Z,3.05
2022-08-02T14:44:09.963Z,4.10
2022-08-02T14:46:38.465Z,2.83
2022-08-02T14:49:05.332Z,3.42
2022-08-02T14:51:32.031Z,2.13
2022-08-02T14:54:03.140Z,2.10
2022-08-02T14:56:30.063Z,3.17
2022-08-02T14:58:56.629Z,2.15
2022-08-02T15:01:25.859Z,2.25
2022-08-02T15:03:52.804Z,4.18
2022-08-02T15:06:19.425Z,1.95
2022-08-02T15:08:45.932Z,2.53
2022-08-02T15:11:12.456Z,2.45
2022-08-02T15:13:42.482Z,3.28
2022-08-02T15:16:09.392Z,3.97
2022-08-02T15:18:35.893Z,2.55
2022-08-02T15:21:13.433Z,1.92
2022-08-02T15:23:48.969Z,5.32
2022-08-02T15:26:15.507Z,2.90
2022-08-02T15:28:41.999Z,2.42
2022-08-02T15:31:08.534Z,2.80
2022-08-02T15:33:35.034Z,2.30
2022-08-02T15:36:01.610Z,4.75
2022-08-02T15:38:28.249Z,3.63
2022-08-02T15:40:54.770Z,2.03
2022-08-02T15:43:21.579Z,2.97
2022-08-02T15:45:48.102Z,2.65
2022-08-02T15:48:14.674Z,1.67
2022-08-02T15:50:41.210Z,3.70
2022-08-02T15:53:07.710Z,2.20
2022-08-02T15:55:52.653Z,1.60
2022-08-02T15:58:22.499Z,4.50
2022-08-02T16:00:49.432Z,2.33
2022-08-02T16:03:15.934Z,2.45
2022-08-02T16:05:42.507Z,1.67
2022-08-02T16:08:09.010Z,3.75
2022-08-02T16:10:35.555Z,2.53
2022-08-02T16:13:20.631Z,2.30
2022-08-02T16:15:47.142Z,1.58
2022-08-02T16:18:13.687Z,2.45
2022-08-02T16:20:40.393Z,1.73
2022-08-02T16:23:06.892Z,2.78
2022-08-02T16:25:33.420Z,1.95
2022-08-02T16:28:07.000Z,1.50
2022-08-02T16:30:34.497Z,2.90
2022-08-02T16:33:01.094Z,2.70
2022-08-02T16:35:28.283Z,2.28
2022-08-02T16:37:54.880Z,3.00
2022-08-02T16:40:21.988Z,3.03
2022-08-02T16:42:50.241Z,5.85
2022-08-02T16:45:21.269Z,3.17
2022-08-02T16:47:55.202Z,3.13
2022-08-02T16:50:27.257Z,2.17
2022-08-02T16:55:22.021Z,4.88
2022-08-02T16:57:50.125Z,2.08
2022-08-02T17:00:17.255Z,3.20
2022-08-02T17:02:44.144Z,2.15
2022-08-02T17:05:14.611Z,3.80
2022-08-02T17:08:07.264Z,5.63
2022-08-02T17:10:29.253Z,3.25
2022-08-02T17:13:11.067Z,2.15
2022-08-02T17:16:08.352Z,4.88
2022-08-02T17:18:26.351Z,2.10
2022-08-02T17:21:12.002Z,3.20
2022-08-02T17:24:02.711Z,4.75
2022-08-02T17:26:25.052Z,3.42
2022-08-02T17:31:43.697Z,4.75
2022-08-02T17:34:13.166Z,3.25
2022-08-02T17:39:09.668Z,4.28
2022-08-02T17:44:37.343Z,2.65
2022-08-02T17:49:37.183Z,5.80
2022-08-02T17:52:49.577Z,3.63
2022-08-02T17:54:57.130Z,4.50
2022-08-02T17:57:23.989Z,6.57
2022-08-02T18:00:11.150Z,2.40
2022-08-02T18:02:38.979Z,5.22
2022-08-02T18:05:05.795Z,4.22
2022-08-02T18:07:50.895Z,5.03
2022-08-02T18:10:22.064Z,4.18
2022-08-02T18:12:50.103Z,3.88
2022-08-02T18:15:17.722Z,2.83
2022-08-02T18:17:46.824Z,3.97
2022-08-02T18:20:13.453Z,4.18
2022-08-02T18:22:43.115Z,3.78
2022-08-02T18:25:36.489Z,3.40
2022-08-02T18:27:58.372Z,5.45
2022-08-02T18:30:28.118Z,5.65
2022-08-02T18:33:58.090Z,3.35
2022-08-02T18:35:42.603Z,4.15
2022-08-02T18:38:11.754Z,4.10
2022-08-02T18:40:38.761Z,3.13
2022-08-02T18:43:07.141Z,4.60
2022-08-02T18:46:04.807Z,5.28
2022-08-02T18:48:20.954Z,4.32
2022-08-02T18:50:48.397Z,2.97
2022-08-02T18:53:16.745Z,4.20
2022-08-02T18:55:59.900Z,2.53
2022-08-02T18:58:30.204Z,5.95
2022-08-02T19:00:57.625Z,3.58
2022-08-02T19:03:25.689Z,4.07
2022-08-02T19:05:54.079Z,4.88
2022-08-02T19:08:26.345Z,2.70
2022-08-02T19:10:56.280Z,5.60
2022-08-02T19:13:23.853Z,3.55
2022-08-02T19:15:50.442Z,5.32
2022-08-02T19:18:16.984Z,3.63
2022-08-02T19:20:48.047Z,4.53
2022-08-02T19:23:15.227Z,3.30
2022-08-02T19:25:50.200Z,3.63
2022-08-02T19:28:26.382Z,3.80
2022-08-02T19:30:54.086Z,3.75
2022-08-02T19:33:54.350Z,5.30
2022-08-02T19:36:07.178Z,5.60
2022-08-02T19:38:33.693Z,3.78
2022-08-02T19:41:01.551Z,5.47
2022-08-02T19:44:27.559Z,4.15
2022-08-02T19:46:15.778Z,4.47
2022-08-02T19:48:42.676Z,5.93
2022-08-02T19:51:12.979Z,5.47
2022-08-02T19:53:47.299Z,3.80
2022-08-02T19:56:20.838Z,4.95
2022-08-02T19:58:51.977Z,3.80
2022-08-02T20:01:23.585Z,3.25
2022-08-02T20:03:54.126Z,5.22
2022-08-02T20:06:29.585Z,4.80
2022-08-02T20:08:58.879Z,3.33
2022-08-02T20:11:25.936Z,3.47
2022-08-02T20:13:53.433Z,4.30
2022-08-02T20:16:27.640Z,5.78
2022-08-02T20:18:56.297Z,4.70
2022-08-02T20:21:35.529Z,5.00
2022-08-02T20:24:05.693Z,3.70
2022-08-02T20:26:32.226Z,3.00
2022-08-02T20:29:02.523Z,5.78
2022-08-02T20:31:29.862Z,3.63
2022-08-02T20:33:56.870Z,6.60
2022-08-02T20:36:24.430Z,3.47
2022-08-02T20:38:50.967Z,4.38
2022-08-02T20:41:21.392Z,2.97
2022-08-02T20:43:48.642Z,4.43
2022-08-02T20:46:15.400Z,4.20
2022-08-02T20:48:41.979Z,5.50
2022-08-02T20:51:09.878Z,6.20
2022-08-02T20:53:54.757Z,4.07
2022-08-02T20:56:25.234Z,6.22
2022-08-02T20:58:52.608Z,4.97
2022-08-02T21:01:21.220Z,4.70
2022-08-02T21:04:06.581Z,6.93
2022-08-02T21:06:33.143Z,4.22
2022-08-02T21:08:59.700Z,6.65
2022-08-02T21:11:33.531Z,5.60
2022-08-02T21:14:07.719Z,6.25
2022-08-02T21:16:36.386Z,4.85
2022-08-02T21:21:49.909Z,4.80
2022-08-02T21:24:17.390Z,5.68
2022-08-02T21:26:48.605Z,6.13
2022-08-02T21:29:15.305Z,3.88
2022-08-02T21:31:42.260Z,4.78
2022-08-02T21:34:26.472Z,5.00
2022-08-02T21:36:54.017Z,3.22
2022-08-02T21:39:20.751Z,4.32
2022-08-02T21:41:47.496Z,4.95
2022-08-02T21:44:18.331Z,4.38
2022-08-02T21:46:49.836Z,5.18
2022-08-02T21:49:20.752Z,3.72
2022-08-02T21:51:49.387Z,4.32
2022-08-02T21:54:20.918Z,4.80
2022-08-02T21:56:49.137Z,6.20
2022-08-02T21:59:17.407Z,4.07
2022-08-02T22:01:52.746Z,4.10
2022-08-02T22:04:21.399Z,6.22
2022-08-02T22:06:49.021Z,3.53
2022-08-02T22:09:17.802Z,3.72
2022-08-02T22:12:04.228Z,3.65
2022-08-02T22:14:33.242Z,4.82
2022-08-02T22:16:59.737Z,5.05
2022-08-02T22:19:26.451Z,4.80
2022-08-02T22:21:56.564Z,4.55
2022-08-02T22:24:30.021Z,4.30
2022-08-02T22:26:57.060Z,4.00
2022-08-02T22:29:23.554Z,4.65
2022-08-02T22:31:50.084Z,4.10
2022-08-02T22:34:36.847Z,8.20
2022-08-02T22:37:07.403Z,3.40
2022-08-02T22:39:34.259Z,4.38
2022-08-02T22:42:05.223Z,5.53
2022-08-02T22:44:33.860Z,6.85
2022-08-02T22:47:03.953Z,6.82
2022-08-02T22:49:38.434Z,4.80
2022-08-02T22:52:21.173Z,5.25
2022-08-02T22:54:47.884Z,3.60
2022-08-02T22:57:14.388Z,4.25
2022-08-02T22:58:48.914Z,2.47
2022-08-02T22:59:41.450Z,5.32
2022-08-02T23:02:08.918Z,5.45
2022-08-02T23:04:36.572Z,3.53
2022-08-02T23:07:03.182Z,6.03
2022-08-02T23:09:29.678Z,5.43
2022-08-02T23:11:56.205Z,4.97
2022-08-02T23:14:22.741Z,2.95
2022-08-02T23:17:08.545Z,2.97
2022-08-02T23:19:52.995Z,7.97
2022-08-02T23:22:29.909Z,3.30
2022-08-02T23:24:59.213Z,5.68
2022-08-02T23:27:25.750Z,3.55
2022-08-02T23:29:52.252Z,4.53
2022-08-02T23:32:18.910Z,3.72
2022-08-02T23:34:50.088Z,5.07
2022-08-02T23:37:16.603Z,5.65
2022-08-02T23:39:43.146Z,3.55
2022-08-02T23:42:09.754Z,6.65
2022-08-02T23:44:36.304Z,2.88
2022-08-02T23:47:02.861Z,4.25
2022-08-02T23:49:29.394Z,3.70
2022-08-02T23:52:01.231Z,7.40
2022-08-02T23:54:28.722Z,4.95
2022-08-02T23:56:55.663Z,6.75
2022-08-02T23:59:22.249Z,4.05
